sensor_id;sensor_type;location;lat;lon;timestamp;P1;durP1;ratioP1;P2;durP2;ratioP2
75413;SDS011;64758;52.122;5.404;2023-06-26T00:01:03;9.38;;;8.43;;
75413;SDS011;64758;52.122;5.404;2023-06-26T00:03:31;9.23;;;8.17;;
75413;SDS011;64758;52.122;5.404;2023-06-26T00:05:59;9.13;;;8.15;;
75413;SDS011;64758;52.122;5.404;2023-06-26T00:08:27;9.27;;;8.32;;
75413;SDS011;64758;52.122;5.404;2023-06-26T00:10:54;8.85;;;7.93;;
75413;SDS011;64758;52.122;5.404;2023-06-26T00:13:21;9.23;;;8.32;;
75413;SDS011;64758;52.122;5.404;2023-06-26T00:15:49;9.87;;;8.60;;
75413;SDS011;64758;52.122;5.404;2023-06-26T00:18:16;8.90;;;8.05;;
75413;SDS011;64758;52.122;5.404;2023-06-26T00:20:43;8.73;;;7.93;;
75413;SDS011;64758;52.122;5.404;2023-06-26T00:23:10;10.73;;;8.43;;
75413;SDS011;64758;52.122;5.404;2023-06-26T00:25:39;8.70;;;7.78;;
75413;SDS011;64758;52.122;5.404;2023-06-26T00:28:06;14.70;;;8.17;;
75413;SDS011;64758;52.122;5.404;2023-06-26T00:30:32;8.18;;;7.05;;
75413;SDS011;64758;52.122;5.404;2023-06-26T00:32:59;8.65;;;7.28;;
75413;SDS011;64758;52.122;5.404;2023-06-26T00:35:26;8.98;;;7.53;;
75413;SDS011;64758;52.122;5.404;2023-06-26T00:37:52;7.43;;;6.65;;
75413;SDS011;64758;52.122;5.404;2023-06-26T00:40:19;10.60;;;7.60;;
75413;SDS011;64758;52.122;5.404;2023-06-26T00:42:45;8.15;;;7.35;;
75413;SDS011;64758;52.122;5.404;2023-06-26T00:45:12;8.95;;;7.15;;
75413;SDS011;64758;52.122;5.404;2023-06-26T00:47:38;8.23;;;7.45;;
75413;SDS011;64758;52.122;5.404;2023-06-26T00:50:05;8.50;;;7.50;;
75413;SDS011;64758;52.122;5.404;2023-06-26T00:52:32;7.70;;;7.00;;
75413;SDS011;64758;52.122;5.404;2023-06-26T00:54:59;8.70;;;7.28;;
75413;SDS011;64758;52.122;5.404;2023-06-26T00:57:26;7.53;;;6.82;;
75413;SDS011;64758;52.122;5.404;2023-06-26T00:59:53;7.78;;;6.97;;
75413;SDS011;64758;52.122;5.404;2023-06-26T01:02:20;8.43;;;7.25;;
75413;SDS011;64758;52.122;5.404;2023-06-26T01:04:47;7.60;;;6.90;;
75413;SDS011;64758;52.122;5.404;2023-06-26T01:07:15;7.72;;;7.03;;
75413;SDS011;64758;52.122;5.404;2023-06-26T01:09:48;7.20;;;6.60;;
75413;SDS011;64758;52.122;5.404;2023-06-26T01:12:15;7.90;;;7.15;;
75413;SDS011;64758;52.122;5.404;2023-06-26T01:14:42;7.85;;;6.55;;
75413;SDS011;64758;52.122;5.404;2023-06-26T01:17:09;7.77;;;6.97;;
75413;SDS011;64758;52.122;5.404;2023-06-26T01:19:42;7.28;;;6.57;;
75413;SDS011;64758;52.122;5.404;2023-06-26T01:22:14;9.82;;;6.72;;
75413;SDS011;64758;52.122;5.404;2023-06-26T01:25:21;10.75;;;6.82;;
75413;SDS011;64758;52.122;5.404;2023-06-26T01:28:05;7.60;;;6.43;;
75413;SDS011;64758;52.122;5.404;2023-06-26T01:30:32;7.43;;;6.73;;
75413;SDS011;64758;52.122;5.404;2023-06-26T01:33:01;7.03;;;6.00;;
75413;SDS011;64758;52.122;5.404;2023-06-26T01:35:28;7.45;;;6.28;;
75413;SDS011;64758;52.122;5.404;2023-06-26T01:38:14;6.32;;;5.70;;
75413;SDS011;64758;52.122;5.404;2023-06-26T01:40:42;7.80;;;6.53;;
75413;SDS011;64758;52.122;5.404;2023-06-26T01:46:18;6.93;;;5.97;;
75413;SDS011;64758;52.122;5.404;2023-06-26T01:49:06;7.38;;;5.38;;
75413;SDS011;64758;52.122;5.404;2023-06-26T01:51:35;7.22;;;5.90;;
75413;SDS011;64758;52.122;5.404;2023-06-26T01:54:15;5.90;;;4.80;;
75413;SDS011;64758;52.122;5.404;2023-06-26T01:56:46;5.63;;;4.33;;
75413;SDS011;64758;52.122;5.404;2023-06-26T01:59:15;7.68;;;5.38;;
75413;SDS011;64758;52.122;5.404;2023-06-26T02:01:45;6.32;;;4.78;;
75413;SDS011;64758;52.122;5.404;2023-06-26T02:04:11;7.57;;;4.65;;
75413;SDS011;64758;52.122;5.404;2023-06-26T02:06:38;5.15;;;4.35;;
75413;SDS011;64758;52.122;5.404;2023-06-26T02:09:04;7.03;;;4.30;;
75413;SDS011;64758;52.122;5.404;2023-06-26T02:11:31;6.88;;;5.15;;
75413;SDS011;64758;52.122;5.404;2023-06-26T02:13:58;6.80;;;3.90;;
75413;SDS011;64758;52.122;5.404;2023-06-26T02:16:24;6.95;;;3.80;;
75413;SDS011;64758;52.122;5.404;2023-06-26T02:18:51;5.72;;;3.65;;
75413;SDS011;64758;52.122;5.404;2023-06-26T02:21:17;5.60;;;3.80;;
75413;SDS011;64758;52.122;5.404;2023-06-26T02:23:44;5.78;;;3.30;;
75413;SDS011;64758;52.122;5.404;2023-06-26T02:26:10;6.28;;;3.72;;
75413;SDS011;64758;52.122;5.404;2023-06-26T02:28:37;5.70;;;3.80;;
75413;SDS011;64758;52.122;5.404;2023-06-26T02:31:03;6.22;;;3.67;;
75413;SDS011;64758;52.122;5.404;2023-06-26T02:33:31;4.40;;;3.10;;
75413;SDS011;64758;52.122;5.404;2023-06-26T02:35:58;5.70;;;3.50;;
75413;SDS011;64758;52.122;5.404;2023-06-26T02:38:24;6.50;;;3.22;;
75413;SDS011;64758;52.122;5.404;2023-06-26T02:40:51;6.38;;;3.25;;
75413;SDS011;64758;52.122;5.404;2023-06-26T02:43:17;6.95;;;3.60;;
75413;SDS011;64758;52.122;5.404;2023-06-26T02:45:44;4.87;;;2.97;;
75413;SDS011;64758;52.122;5.404;2023-06-26T02:48:11;7.32;;;3.22;;
75413;SDS011;64758;52.122;5.404;2023-06-26T02:50:37;8.90;;;3.60;;
75413;SDS011;64758;52.122;5.404;2023-06-26T02:53:04;9.65;;;3.35;;
75413;SDS011;64758;52.122;5.404;2023-06-26T02:55:31;7.35;;;3.38;;
75413;SDS011;64758;52.122;5.404;2023-06-26T02:57:58;6.50;;;2.97;;
75413;SDS011;64758;52.122;5.404;2023-06-26T03:00:24;8.15;;;3.50;;
75413;SDS011;64758;52.122;5.404;2023-06-26T03:02:51;10.70;;;3.67;;
75413;SDS011;64758;52.122;5.404;2023-06-26T03:05:18;7.13;;;3.47;;
75413;SDS011;64758;52.122;5.404;2023-06-26T03:07:44;8.38;;;2.88;;
75413;SDS011;64758;52.122;5.404;2023-06-26T03:10:11;7.27;;;3.23;;
75413;SDS011;64758;52.122;5.404;2023-06-26T03:12:37;5.57;;;2.90;;
75413;SDS011;64758;52.122;5.404;2023-06-26T03:15:04;9.90;;;3.53;;
75413;SDS011;64758;52.122;5.404;2023-06-26T03:17:31;9.15;;;3.45;;
75413;SDS011;64758;52.122;5.404;2023-06-26T03:19:57;8.40;;;3.30;;
75413;SDS011;64758;52.122;5.404;2023-06-26T03:22:24;9.23;;;3.03;;
75413;SDS011;64758;52.122;5.404;2023-06-26T03:24:50;9.48;;;3.25;;
75413;SDS011;64758;52.122;5.404;2023-06-26T03:27:17;9.43;;;3.53;;
75413;SDS011;64758;52.122;5.404;2023-06-26T03:29:44;10.43;;;3.40;;
75413;SDS011;64758;52.122;5.404;2023-06-26T03:32:12;7.55;;;3.03;;
75413;SDS011;64758;52.122;5.404;2023-06-26T03:34:39;7.83;;;3.07;;
75413;SDS011;64758;52.122;5.404;2023-06-26T03:37:05;9.10;;;3.50;;
75413;SDS011;64758;52.122;5.404;2023-06-26T03:39:32;7.53;;;2.78;;
75413;SDS011;64758;52.122;5.404;2023-06-26T03:41:59;7.53;;;3.53;;
75413;SDS011;64758;52.122;5.404;2023-06-26T03:44:27;7.53;;;3.28;;
75413;SDS011;64758;52.122;5.404;2023-06-26T03:46:54;9.43;;;3.00;;
75413;SDS011;64758;52.122;5.404;2023-06-26T03:49:20;8.65;;;3.65;;
75413;SDS011;64758;52.122;5.404;2023-06-26T03:51:47;10.52;;;3.33;;
75413;SDS011;64758;52.122;5.404;2023-06-26T03:54:14;8.50;;;3.15;;
75413;SDS011;64758;52.122;5.404;2023-06-26T03:56:40;8.50;;;3.47;;
75413;SDS011;64758;52.122;5.404;2023-06-26T03:59:07;6.07;;;3.13;;
75413;SDS011;64758;52.122;5.404;2023-06-26T04:01:33;6.80;;;3.20;;
75413;SDS011;64758;52.122;5.404;2023-06-26T04:04:02;7.90;;;3.50;;
75413;SDS011;64758;52.122;5.404;2023-06-26T04:06:29;10.27;;;4.20;;
75413;SDS011;64758;52.122;5.404;2023-06-26T04:08:57;10.40;;;3.17;;
75413;SDS011;64758;52.122;5.404;2023-06-26T04:11:24;8.50;;;3.40;;
75413;SDS011;64758;52.122;5.404;2023-06-26T04:13:51;15.73;;;4.20;;
75413;SDS011;64758;52.122;5.404;2023-06-26T04:16:18;9.75;;;3.60;;
75413;SDS011;64758;52.122;5.404;2023-06-26T04:18:45;12.05;;;3.35;;
75413;SDS011;64758;52.122;5.404;2023-06-26T04:21:12;9.48;;;3.13;;
75413;SDS011;64758;52.122;5.404;2023-06-26T04:23:39;10.00;;;4.17;;
75413;SDS011;64758;52.122;5.404;2023-06-26T04:26:07;8.27;;;3.22;;
75413;SDS011;64758;52.122;5.404;2023-06-26T04:28:34;10.73;;;3.15;;
75413;SDS011;64758;52.122;5.404;2023-06-26T04:31:01;10.00;;;3.72;;
75413;SDS011;64758;52.122;5.404;2023-06-26T04:33:31;9.07;;;3.53;;
75413;SDS011;64758;52.122;5.404;2023-06-26T04:35:58;9.53;;;2.90;;
75413;SDS011;64758;52.122;5.404;2023-06-26T04:38:25;7.28;;;2.95;;
75413;SDS011;64758;52.122;5.404;2023-06-26T04:40:52;5.45;;;2.75;;
75413;SDS011;64758;52.122;5.404;2023-06-26T04:43:19;7.65;;;2.90;;
75413;SDS011;64758;52.122;5.404;2023-06-26T04:45:45;8.95;;;3.35;;
75413;SDS011;64758;52.122;5.404;2023-06-26T04:48:12;8.13;;;3.00;;
75413;SDS011;64758;52.122;5.404;2023-06-26T04:50:39;9.10;;;3.05;;
75413;SDS011;64758;52.122;5.404;2023-06-26T04:53:06;6.53;;;3.20;;
75413;SDS011;64758;52.122;5.404;2023-06-26T04:55:33;11.75;;;4.28;;
75413;SDS011;64758;52.122;5.404;2023-06-26T04:58:01;5.72;;;2.45;;
75413;SDS011;64758;52.122;5.404;2023-06-26T05:00:27;7.77;;;2.50;;
75413;SDS011;64758;52.122;5.404;2023-06-26T05:02:54;10.30;;;3.08;;
75413;SDS011;64758;52.122;5.404;2023-06-26T05:05:27;5.38;;;2.30;;
75413;SDS011;64758;52.122;5.404;2023-06-26T05:07:54;9.43;;;2.78;;
75413;SDS011;64758;52.122;5.404;2023-06-26T05:10:21;6.43;;;2.47;;
75413;SDS011;64758;52.122;5.404;2023-06-26T05:12:48;8.93;;;2.13;;
75413;SDS011;64758;52.122;5.404;2023-06-26T05:15:15;8.38;;;3.05;;
75413;SDS011;64758;52.122;5.404;2023-06-26T05:17:41;7.18;;;3.35;;
75413;SDS011;64758;52.122;5.404;2023-06-26T05:20:08;5.22;;;2.90;;
75413;SDS011;64758;52.122;5.404;2023-06-26T05:22:35;5.25;;;2.40;;
75413;SDS011;64758;52.122;5.404;2023-06-26T05:25:05;4.23;;;2.30;;
75413;SDS011;64758;52.122;5.404;2023-06-26T05:27:35;4.95;;;2.40;;
75413;SDS011;64758;52.122;5.404;2023-06-26T05:30:02;8.38;;;2.80;;
75413;SDS011;64758;52.122;5.404;2023-06-26T05:32:29;4.55;;;2.30;;
75413;SDS011;64758;52.122;5.404;2023-06-26T05:34:57;5.68;;;2.00;;
75413;SDS011;64758;52.122;5.404;2023-06-26T05:37:26;6.90;;;2.60;;
75413;SDS011;64758;52.122;5.404;2023-06-26T05:39:55;5.75;;;2.65;;
75413;SDS011;64758;52.122;5.404;2023-06-26T05:42:21;6.55;;;2.30;;
75413;SDS011;64758;52.122;5.404;2023-06-26T05:44:48;7.15;;;2.25;;
75413;SDS011;64758;52.122;5.404;2023-06-26T05:47:15;4.45;;;2.72;;
75413;SDS011;64758;52.122;5.404;2023-06-26T05:49:41;6.80;;;2.10;;
75413;SDS011;64758;52.122;5.404;2023-06-26T05:52:08;4.28;;;2.17;;
75413;SDS011;64758;52.122;5.404;2023-06-26T05:54:35;3.97;;;1.70;;
75413;SDS011;64758;52.122;5.404;2023-06-26T05:57:02;8.30;;;2.15;;
75413;SDS011;64758;52.122;5.404;2023-06-26T05:59:30;2.85;;;1.60;;
75413;SDS011;64758;52.122;5.404;2023-06-26T06:01:58;3.73;;;1.60;;
75413;SDS011;64758;52.122;5.404;2023-06-26T06:04:24;3.40;;;2.00;;
75413;SDS011;64758;52.122;5.404;2023-06-26T06:06:51;4.18;;;1.50;;
75413;SDS011;64758;52.122;5.404;2023-06-26T06:09:18;5.10;;;2.03;;
75413;SDS011;64758;52.122;5.404;2023-06-26T06:11:44;4.25;;;1.70;;
75413;SDS011;64758;52.122;5.404;2023-06-26T06:14:11;20.20;;;2.67;;
75413;SDS011;64758;52.122;5.404;2023-06-26T06:16:38;4.40;;;1.60;;
75413;SDS011;64758;52.122;5.404;2023-06-26T06:19:04;4.90;;;1.60;;
75413;SDS011;64758;52.122;5.404;2023-06-26T06:21:33;3.25;;;1.40;;
75413;SDS011;64758;52.122;5.404;2023-06-26T06:23:59;2.88;;;1.52;;
75413;SDS011;64758;52.122;5.404;2023-06-26T06:26:27;3.70;;;1.43;;
75413;SDS011;64758;52.122;5.404;2023-06-26T06:28:54;5.05;;;1.83;;
75413;SDS011;64758;52.122;5.404;2023-06-26T06:31:20;3.42;;;1.60;;
75413;SDS011;64758;52.122;5.404;2023-06-26T06:33:47;6.07;;;1.30;;
75413;SDS011;64758;52.122;5.404;2023-06-26T06:36:13;4.15;;;1.50;;
75413;SDS011;64758;52.122;5.404;2023-06-26T06:38:42;4.47;;;1.60;;
75413;SDS011;64758;52.122;5.404;2023-06-26T06:41:10;2.80;;;1.50;;
75413;SDS011;64758;52.122;5.404;2023-06-26T06:43:36;4.30;;;1.42;;
75413;SDS011;64758;52.122;5.404;2023-06-26T06:46:03;3.33;;;1.60;;
75413;SDS011;64758;52.122;5.404;2023-06-26T06:48:30;4.22;;;1.75;;
75413;SDS011;64758;52.122;5.404;2023-06-26T06:50:57;4.33;;;1.63;;
75413;SDS011;64758;52.122;5.404;2023-06-26T06:53:24;5.57;;;1.50;;
75413;SDS011;64758;52.122;5.404;2023-06-26T06:55:50;6.50;;;1.65;;
75413;SDS011;64758;52.122;5.404;2023-06-26T06:58:17;2.75;;;1.42;;
75413;SDS011;64758;52.122;5.404;2023-06-26T07:00:45;3.55;;;1.42;;
75413;SDS011;64758;52.122;5.404;2023-06-26T07:03:12;3.23;;;1.70;;
75413;SDS011;64758;52.122;5.404;2023-06-26T07:05:40;4.53;;;1.55;;
75413;SDS011;64758;52.122;5.404;2023-06-26T07:08:08;3.20;;;1.60;;
75413;SDS011;64758;52.122;5.404;2023-06-26T07:10:35;3.08;;;1.30;;
75413;SDS011;64758;52.122;5.404;2023-06-26T07:13:02;6.28;;;2.00;;
75413;SDS011;64758;52.122;5.404;2023-06-26T07:15:28;3.57;;;1.60;;
75413;SDS011;64758;52.122;5.404;2023-06-26T07:17:55;4.65;;;2.20;;
75413;SDS011;64758;52.122;5.404;2023-06-26T07:20:22;3.80;;;2.05;;
75413;SDS011;64758;52.122;5.404;2023-06-26T07:22:48;4.97;;;2.08;;
75413;SDS011;64758;52.122;5.404;2023-06-26T07:25:15;5.13;;;2.10;;
75413;SDS011;64758;52.122;5.404;2023-06-26T07:27:41;6.63;;;2.43;;
75413;SDS011;64758;52.122;5.404;2023-06-26T07:30:08;5.35;;;2.28;;
75413;SDS011;64758;52.122;5.404;2023-06-26T07:32:36;3.83;;;1.75;;
75413;SDS011;64758;52.122;5.404;2023-06-26T07:35:04;3.90;;;1.90;;
75413;SDS011;64758;52.122;5.404;2023-06-26T07:37:31;4.55;;;2.20;;
75413;SDS011;64758;52.122;5.404;2023-06-26T07:39:58;2.53;;;1.70;;
75413;SDS011;64758;52.122;5.404;2023-06-26T07:42:24;3.90;;;2.00;;
75413;SDS011;64758;52.122;5.404;2023-06-26T07:44:51;4.70;;;1.90;;
75413;SDS011;64758;52.122;5.404;2023-06-26T07:47:17;5.15;;;1.25;;
75413;SDS011;64758;52.122;5.404;2023-06-26T07:49:44;8.88;;;2.08;;
75413;SDS011;64758;52.122;5.404;2023-06-26T07:52:11;2.83;;;1.43;;
75413;SDS011;64758;52.122;5.404;2023-06-26T07:54:37;4.32;;;2.00;;
75413;SDS011;64758;52.122;5.404;2023-06-26T07:57:04;8.63;;;1.80;;
75413;SDS011;64758;52.122;5.404;2023-06-26T07:59:33;2.65;;;1.65;;
75413;SDS011;64758;52.122;5.404;2023-06-26T08:01:59;5.13;;;1.88;;
75413;SDS011;64758;52.122;5.404;2023-06-26T08:04:28;4.17;;;1.70;;
75413;SDS011;64758;52.122;5.404;2023-06-26T08:07:01;5.20;;;1.98;;
75413;SDS011;64758;52.122;5.404;2023-06-26T08:09:28;4.45;;;2.20;;
75413;SDS011;64758;52.122;5.404;2023-06-26T08:11:56;3.28;;;1.88;;
75413;SDS011;64758;52.122;5.404;2023-06-26T08:14:23;4.13;;;1.60;;
75413;SDS011;64758;52.122;5.404;2023-06-26T08:16:50;3.50;;;2.00;;
75413;SDS011;64758;52.122;5.404;2023-06-26T08:19:17;5.75;;;1.50;;
75413;SDS011;64758;52.122;5.404;2023-06-26T08:21:44;10.52;;;1.80;;
75413;SDS011;64758;52.122;5.404;2023-06-26T08:24:11;4.25;;;1.60;;
75413;SDS011;64758;52.122;5.404;2023-06-26T08:26:47;3.17;;;1.73;;
75413;SDS011;64758;52.122;5.404;2023-06-26T08:29:14;5.87;;;1.70;;
75413;SDS011;64758;52.122;5.404;2023-06-26T08:31:42;4.93;;;1.50;;
75413;SDS011;64758;52.122;5.404;2023-06-26T08:34:08;3.58;;;1.40;;
75413;SDS011;64758;52.122;5.404;2023-06-26T08:36:35;4.78;;;0.90;;
75413;SDS011;64758;52.122;5.404;2023-06-26T08:39:01;4.20;;;1.30;;
75413;SDS011;64758;52.122;5.404;2023-06-26T08:41:29;4.27;;;1.10;;
75413;SDS011;64758;52.122;5.404;2023-06-26T08:43:56;5.10;;;1.20;;
75413;SDS011;64758;52.122;5.404;2023-06-26T08:46:22;5.88;;;0.98;;
75413;SDS011;64758;52.122;5.404;2023-06-26T08:48:51;3.45;;;1.30;;
75413;SDS011;64758;52.122;5.404;2023-06-26T08:51:23;5.10;;;1.08;;
75413;SDS011;64758;52.122;5.404;2023-06-26T08:53:58;2.63;;;1.00;;
75413;SDS011;64758;52.122;5.404;2023-06-26T08:56:36;3.22;;;0.90;;
75413;SDS011;64758;52.122;5.404;2023-06-26T08:59:07;2.15;;;1.00;;
75413;SDS011;64758;52.122;5.404;2023-06-26T09:01:36;3.83;;;0.98;;
75413;SDS011;64758;52.122;5.404;2023-06-26T09:04:04;4.00;;;1.00;;
75413;SDS011;64758;52.122;5.404;2023-06-26T09:06:31;4.60;;;0.80;;
75413;SDS011;64758;52.122;5.404;2023-06-26T09:08:57;3.83;;;1.00;;
75413;SDS011;64758;52.122;5.404;2023-06-26T09:11:24;3.65;;;0.90;;
75413;SDS011;64758;52.122;5.404;2023-06-26T09:13:51;4.65;;;1.33;;
75413;SDS011;64758;52.122;5.404;2023-06-26T09:16:18;3.95;;;0.90;;
75413;SDS011;64758;52.122;5.404;2023-06-26T09:18:50;2.60;;;1.00;;
75413;SDS011;64758;52.122;5.404;2023-06-26T09:21:18;2.45;;;0.85;;
75413;SDS011;64758;52.122;5.404;2023-06-26T09:23:44;4.72;;;0.88;;
75413;SDS011;64758;52.122;5.404;2023-06-26T09:26:11;1.80;;;0.90;;
75413;SDS011;64758;52.122;5.404;2023-06-26T09:28:38;3.70;;;0.90;;
75413;SDS011;64758;52.122;5.404;2023-06-26T09:31:05;2.57;;;0.80;;
75413;SDS011;64758;52.122;5.404;2023-06-26T09:33:35;2.80;;;1.05;;
75413;SDS011;64758;52.122;5.404;2023-06-26T09:36:09;3.88;;;1.15;;
75413;SDS011;64758;52.122;5.404;2023-06-26T09:38:45;3.90;;;0.93;;
75413;SDS011;64758;52.122;5.404;2023-06-26T09:41:15;3.90;;;0.93;;
75413;SDS011;64758;52.122;5.404;2023-06-26T09:43:48;3.40;;;1.80;;
75413;SDS011;64758;52.122;5.404;2023-06-26T09:46:16;2.58;;;0.95;;
75413;SDS011;64758;52.122;5.404;2023-06-26T09:51:33;3.90;;;0.98;;
75413;SDS011;64758;52.122;5.404;2023-06-26T09:54:01;2.08;;;0.88;;
75413;SDS011;64758;52.122;5.404;2023-06-26T09:56:29;3.10;;;1.03;;
75413;SDS011;64758;52.122;5.404;2023-06-26T09:58:57;2.95;;;1.00;;
75413;SDS011;64758;52.122;5.404;2023-06-26T10:01:25;4.07;;;1.00;;
75413;SDS011;64758;52.122;5.404;2023-06-26T10:03:56;2.45;;;0.70;;
75413;SDS011;64758;52.122;5.404;2023-06-26T10:06:34;4.20;;;0.80;;
75413;SDS011;64758;52.122;5.404;2023-06-26T10:09:03;1.77;;;0.70;;
75413;SDS011;64758;52.122;5.404;2023-06-26T10:11:54;2.75;;;0.80;;
75413;SDS011;64758;52.122;5.404;2023-06-26T10:14:20;2.30;;;1.00;;
75413;SDS011;64758;52.122;5.404;2023-06-26T10:16:48;3.47;;;0.98;;
75413;SDS011;64758;52.122;5.404;2023-06-26T10:19:16;2.47;;;0.80;;
75413;SDS011;64758;52.122;5.404;2023-06-26T10:21:51;4.23;;;1.00;;
75413;SDS011;64758;52.122;5.404;2023-06-26T10:24:19;2.55;;;0.82;;
75413;SDS011;64758;52.122;5.404;2023-06-26T10:26:49;1.48;;;0.70;;
75413;SDS011;64758;52.122;5.404;2023-06-26T10:29:18;3.08;;;0.95;;
75413;SDS011;64758;52.122;5.404;2023-06-26T10:31:50;2.25;;;0.57;;
75413;SDS011;64758;52.122;5.404;2023-06-26T10:34:19;3.03;;;0.63;;
75413;SDS011;64758;52.122;5.404;2023-06-26T10:36:46;5.72;;;0.90;;
75413;SDS011;64758;52.122;5.404;2023-06-26T10:39:14;1.95;;;0.70;;
75413;SDS011;64758;52.122;5.404;2023-06-26T10:41:40;3.90;;;1.10;;
75413;SDS011;64758;52.122;5.404;2023-06-26T10:44:29;2.45;;;0.80;;
75413;SDS011;64758;52.122;5.404;2023-06-26T10:47:07;2.37;;;0.67;;
75413;SDS011;64758;52.122;5.404;2023-06-26T10:49:35;5.50;;;0.75;;
75413;SDS011;64758;52.122;5.404;2023-06-26T10:52:03;3.38;;;1.02;;
75413;SDS011;64758;52.122;5.404;2023-06-26T10:54:34;1.20;;;0.63;;
75413;SDS011;64758;52.122;5.404;2023-06-26T10:57:01;2.33;;;0.60;;
75413;SDS011;64758;52.122;5.404;2023-06-26T10:59:29;4.30;;;0.90;;
75413;SDS011;64758;52.122;5.404;2023-06-26T11:02:03;2.72;;;0.80;;
75413;SDS011;64758;52.122;5.404;2023-06-26T11:04:40;2.40;;;0.70;;
75413;SDS011;64758;52.122;5.404;2023-06-26T11:07:20;1.80;;;0.73;;
75413;SDS011;64758;52.122;5.404;2023-06-26T11:10:01;3.20;;;0.60;;
75413;SDS011;64758;52.122;5.404;2023-06-26T11:12:40;2.63;;;0.70;;
75413;SDS011;64758;52.122;5.404;2023-06-26T11:15:12;5.22;;;0.98;;
75413;SDS011;64758;52.122;5.404;2023-06-26T11:17:44;2.20;;;0.85;;
75413;SDS011;64758;52.122;5.404;2023-06-26T11:20:11;3.00;;;0.90;;
75413;SDS011;64758;52.122;5.404;2023-06-26T11:22:40;4.70;;;2.15;;
75413;SDS011;64758;52.122;5.404;2023-06-26T11:25:08;1.77;;;0.70;;
75413;SDS011;64758;52.122;5.404;2023-06-26T11:27:39;2.75;;;0.80;;
75413;SDS011;64758;52.122;5.404;2023-06-26T11:30:11;4.78;;;1.00;;
75413;SDS011;64758;52.122;5.404;2023-06-26T11:32:49;1.08;;;0.80;;
75413;SDS011;64758;52.122;5.404;2023-06-26T11:35:23;2.30;;;0.70;;
75413;SDS011;64758;52.122;5.404;2023-06-26T11:37:57;3.40;;;0.60;;
75413;SDS011;64758;52.122;5.404;2023-06-26T11:40:33;3.22;;;0.82;;
75413;SDS011;64758;52.122;5.404;2023-06-26T11:43:02;2.20;;;0.63;;
75413;SDS011;64758;52.122;5.404;2023-06-26T11:45:32;2.17;;;0.65;;
75413;SDS011;64758;52.122;5.404;2023-06-26T11:47:59;1.48;;;0.70;;
75413;SDS011;64758;52.122;5.404;2023-06-26T11:50:27;1.77;;;0.70;;
75413;SDS011;64758;52.122;5.404;2023-06-26T11:52:54;2.30;;;0.60;;
75413;SDS011;64758;52.122;5.404;2023-06-26T11:55:25;1.75;;;0.52;;
75413;SDS011;64758;52.122;5.404;2023-06-26T11:57:53;2.22;;;0.55;;
75413;SDS011;64758;52.122;5.404;2023-06-26T12:00:21;1.05;;;0.50;;
75413;SDS011;64758;52.122;5.404;2023-06-26T12:02:48;2.50;;;0.70;;
75413;SDS011;64758;52.122;5.404;2023-06-26T12:05:16;1.90;;;0.50;;
75413;SDS011;64758;52.122;5.404;2023-06-26T12:07:44;2.70;;;0.60;;
75413;SDS011;64758;52.122;5.404;2023-06-26T12:10:13;1.33;;;0.40;;
75413;SDS011;64758;52.122;5.404;2023-06-26T12:12:42;2.78;;;0.60;;
75413;SDS011;64758;52.122;5.404;2023-06-26T12:15:10;1.00;;;0.50;;
75413;SDS011;64758;52.122;5.404;2023-06-26T12:17:41;1.85;;;0.55;;
75413;SDS011;64758;52.122;5.404;2023-06-26T12:20:18;3.38;;;1.42;;
75413;SDS011;64758;52.122;5.404;2023-06-26T12:22:47;2.00;;;0.43;;
75413;SDS011;64758;52.122;5.404;2023-06-26T12:25:15;2.28;;;0.60;;
75413;SDS011;64758;52.122;5.404;2023-06-26T12:27:48;1.73;;;0.47;;
75413;SDS011;64758;52.122;5.404;2023-06-26T12:30:16;1.75;;;0.60;;
75413;SDS011;64758;52.122;5.404;2023-06-26T12:32:45;0.60;;;0.40;;
75413;SDS011;64758;52.122;5.404;2023-06-26T12:35:15;1.70;;;0.40;;
75413;SDS011;64758;52.122;5.404;2023-06-26T12:37:42;3.80;;;0.50;;
75413;SDS011;64758;52.122;5.404;2023-06-26T12:40:17;1.73;;;0.60;;
75413;SDS011;64758;52.122;5.404;2023-06-26T12:42:45;2.88;;;0.50;;
75413;SDS011;64758;52.122;5.404;2023-06-26T12:45:14;1.67;;;0.50;;
75413;SDS011;64758;52.122;5.404;2023-06-26T12:48:15;2.80;;;0.30;;
75413;SDS011;64758;52.122;5.404;2023-06-26T12:50:43;3.13;;;0.52;;
75413;SDS011;64758;52.122;5.404;2023-06-26T12:53:11;2.47;;;0.70;;
75413;SDS011;64758;52.122;5.404;2023-06-26T12:55:39;1.98;;;0.60;;
75413;SDS011;64758;52.122;5.404;2023-06-26T12:58:06;1.48;;;0.52;;
75413;SDS011;64758;52.122;5.404;2023-06-26T13:00:34;1.33;;;0.60;;
75413;SDS011;64758;52.122;5.404;2023-06-26T13:03:02;1.92;;;0.75;;
75413;SDS011;64758;52.122;5.404;2023-06-26T13:05:30;2.67;;;0.60;;
75413;SDS011;64758;52.122;5.404;2023-06-26T13:07:57;3.15;;;0.63;;
75413;SDS011;64758;52.122;5.404;2023-06-26T13:10:24;2.95;;;0.50;;
75413;SDS011;64758;52.122;5.404;2023-06-26T13:12:53;2.75;;;0.52;;
75413;SDS011;64758;52.122;5.404;2023-06-26T13:15:20;4.30;;;0.60;;
75413;SDS011;64758;52.122;5.404;2023-06-26T13:17:46;1.30;;;0.43;;
75413;SDS011;64758;52.122;5.404;2023-06-26T13:20:13;1.58;;;0.50;;
75413;SDS011;64758;52.122;5.404;2023-06-26T13:22:40;2.60;;;0.50;;
75413;SDS011;64758;52.122;5.404;2023-06-26T13:25:06;2.90;;;0.50;;
75413;SDS011;64758;52.122;5.404;2023-06-26T13:27:34;3.78;;;0.60;;
75413;SDS011;64758;52.122;5.404;2023-06-26T13:30:01;4.10;;;0.80;;
75413;SDS011;64758;52.122;5.404;2023-06-26T13:32:28;3.17;;;0.60;;
75413;SDS011;64758;52.122;5.404;2023-06-26T13:34:55;4.50;;;0.60;;
75413;SDS011;64758;52.122;5.404;2023-06-26T13:37:21;1.60;;;0.68;;
75413;SDS011;64758;52.122;5.404;2023-06-26T13:39:48;1.77;;;0.60;;
75413;SDS011;64758;52.122;5.404;2023-06-26T13:42:16;2.37;;;0.60;;
75413;SDS011;64758;52.122;5.404;2023-06-26T13:44:44;1.92;;;0.40;;
75413;SDS011;64758;52.122;5.404;2023-06-26T13:47:28;1.65;;;0.60;;
75413;SDS011;64758;52.122;5.404;2023-06-26T13:49:54;0.80;;;0.50;;
75413;SDS011;64758;52.122;5.404;2023-06-26T13:52:21;3.60;;;0.77;;
75413;SDS011;64758;52.122;5.404;2023-06-26T13:54:47;2.27;;;0.50;;
75413;SDS011;64758;52.122;5.404;2023-06-26T13:57:14;3.38;;;0.98;;
75413;SDS011;64758;52.122;5.404;2023-06-26T13:59:41;2.25;;;0.70;;
75413;SDS011;64758;52.122;5.404;2023-06-26T14:02:07;1.80;;;0.50;;
75413;SDS011;64758;52.122;5.404;2023-06-26T14:04:34;1.63;;;0.60;;
75413;SDS011;64758;52.122;5.404;2023-06-26T14:07:01;2.47;;;0.60;;
75413;SDS011;64758;52.122;5.404;2023-06-26T14:09:28;2.13;;;0.60;;
75413;SDS011;64758;52.122;5.404;2023-06-26T14:11:54;3.17;;;0.50;;
75413;SDS011;64758;52.122;5.404;2023-06-26T14:14:21;2.22;;;0.50;;
75413;SDS011;64758;52.122;5.404;2023-06-26T14:16:47;4.22;;;0.60;;
75413;SDS011;64758;52.122;5.404;2023-06-26T14:19:15;4.50;;;0.83;;
75413;SDS011;64758;52.122;5.404;2023-06-26T14:21:43;2.10;;;0.47;;
75413;SDS011;64758;52.122;5.404;2023-06-26T14:24:10;0.90;;;0.50;;
75413;SDS011;64758;52.122;5.404;2023-06-26T14:26:36;3.42;;;0.70;;
75413;SDS011;64758;52.122;5.404;2023-06-26T14:29:07;4.57;;;0.70;;
75413;SDS011;64758;52.122;5.404;2023-06-26T14:31:34;1.97;;;0.60;;
75413;SDS011;64758;52.122;5.404;2023-06-26T14:34:01;2.17;;;0.60;;
75413;SDS011;64758;52.122;5.404;2023-06-26T14:36:29;2.58;;;0.50;;
75413;SDS011;64758;52.122;5.404;2023-06-26T14:38:58;1.83;;;0.70;;
75413;SDS011;64758;52.122;5.404;2023-06-26T14:41:26;1.92;;;0.85;;
75413;SDS011;64758;52.122;5.404;2023-06-26T14:43:53;4.80;;;0.80;;
75413;SDS011;64758;52.122;5.404;2023-06-26T14:46:20;2.53;;;0.85;;
75413;SDS011;64758;52.122;5.404;2023-06-26T14:48:48;4.75;;;0.80;;
75413;SDS011;64758;52.122;5.404;2023-06-26T14:51:14;2.05;;;0.80;;
75413;SDS011;64758;52.122;5.404;2023-06-26T14:53:41;1.70;;;0.70;;
75413;SDS011;64758;52.122;5.404;2023-06-26T14:56:08;3.30;;;0.90;;
75413;SDS011;64758;52.122;5.404;2023-06-26T14:58:34;3.17;;;0.93;;
75413;SDS011;64758;52.122;5.404;2023-06-26T15:01:01;1.20;;;0.55;;